createdAt,value
2018-02-05T00:00:17.988Z,-1.00
2018-02-05T00:02:49.567Z,-1.00
2018-02-05T00:05:17.939Z,-1.00
2018-02-05T00:07:52.683Z,-0.90
2018-02-05T00:10:23.357Z,-1.00
2018-02-05T00:12:54.616Z,-1.00
2018-02-05T00:15:23.415Z,-0.90
2018-02-05T00:17:50.981Z,-0.90
2018-02-05T00:20:20.291Z,-0.90
2018-02-05T00:22:53.417Z,-0.90
2018-02-05T00:25:25.544Z,-1.00
2018-02-05T00:27:59.731Z,-0.90
2018-02-05T00:30:32.723Z,-1.00
2018-02-05T00:33:00.355Z,-1.10
2018-02-05T00:35:30.451Z,-1.10
2018-02-05T00:38:00.158Z,-1.10
2018-02-05T00:40:30.192Z,-1.10
2018-02-05T00:45:28.464Z,-1.00
2018-02-05T00:47:57.075Z,-1.00
2018-02-05T00:50:26.952Z,-1.00
2018-02-05T00:52:59.372Z,-1.00
2018-02-05T00:55:26.969Z,-0.90
2018-02-05T00:57:59.114Z,-0.80
2018-02-05T01:00:29.323Z,-0.80
2018-02-05T01:02:58.580Z,-0.90
2018-02-05T01:05:27.124Z,-0.90
2018-02-05T01:07:55.159Z,-1.00
2018-02-05T01:10:22.694Z,-1.20
2018-02-05T01:12:51.652Z,-1.30
2018-02-05T01:15:21.211Z,-1.40
2018-02-05T01:17:50.606Z,-1.40
2018-02-05T01:20:19.760Z,-1.30
2018-02-05T01:22:48.522Z,-1.30
2018-02-05T01:25:21.634Z,-1.40
2018-02-05T01:27:53.771Z,-1.40
2018-02-05T01:30:24.103Z,-1.40
2018-02-05T01:32:54.130Z,-1.40
2018-02-05T01:35:24.652Z,-1.40
2018-02-05T01:37:52.872Z,-1.30
2018-02-05T01:40:22.010Z,-1.20
2018-02-05T01:42:50.344Z,-1.10
2018-02-05T01:45:20.850Z,-1.10
2018-02-05T01:47:50.043Z,-1.00
2018-02-05T01:50:25.810Z,-1.00
2018-02-05T01:52:54.157Z,-1.00
2018-02-05T01:55:22.872Z,-1.00
2018-02-05T01:57:52.130Z,-1.00
2018-02-05T02:00:21.069Z,-0.90
2018-02-05T02:02:48.703Z,-0.80
2018-02-05T02:05:20.805Z,-0.80
2018-02-05T02:07:49.680Z,-0.80
2018-02-05T02:10:17.301Z,-0.80
2018-02-05T02:12:46.582Z,-0.80
2018-02-05T02:15:16.096Z,-0.80
2018-02-05T02:17:46.925Z,-0.80
2018-02-05T02:20:15.216Z,-0.80
2018-02-05T02:22:46.092Z,-0.90
2018-02-05T02:25:14.345Z,-0.80
2018-02-05T02:27:43.535Z,-0.90
2018-02-05T02:30:11.131Z,-0.80
2018-02-05T02:32:39.357Z,-0.80
2018-02-05T02:35:08.438Z,-0.70
2018-02-05T02:37:37.880Z,-0.80
2018-02-05T02:40:06.352Z,-0.80
2018-02-05T02:42:35.829Z,-0.80
2018-02-05T02:45:04.178Z,-0.90
2018-02-05T02:47:32.644Z,-0.90
2018-02-05T02:50:00.247Z,-0.80
2018-02-05T02:52:28.303Z,-0.90
2018-02-05T02:54:55.968Z,-0.90
2018-02-05T02:57:27.249Z,-0.80
2018-02-05T02:59:57.321Z,-0.90
2018-02-05T03:02:25.808Z,-0.90
2018-02-05T03:04:54.714Z,-0.90
2018-02-05T03:07:24.073Z,-0.90
2018-02-05T03:09:54.110Z,-1.00
2018-02-05T03:12:22.380Z,-1.00
2018-02-05T03:14:50.795Z,-1.00
2018-02-05T03:17:20.794Z,-0.90
2018-02-05T03:19:49.137Z,-0.80
2018-02-05T03:22:17.804Z,-0.90
2018-02-05T03:24:47.562Z,-1.00
2018-02-05T03:27:15.163Z,-1.00
2018-02-05T03:29:43.419Z,-1.00
2018-02-05T03:32:13.090Z,-0.90
2018-02-05T03:34:40.615Z,-0.90
2018-02-05T03:37:09.816Z,-0.90
2018-02-05T03:39:38.311Z,-0.90
2018-02-05T03:42:10.806Z,-0.90
2018-02-05T03:44:39.329Z,-0.90
2018-02-05T03:47:06.867Z,-0.80
2018-02-05T03:49:35.590Z,-0.80
2018-02-05T03:52:03.079Z,-0.70
2018-02-05T03:54:33.193Z,-0.70
2018-02-05T03:57:01.516Z,-0.80
2018-02-05T03:59:30.156Z,-0.80
2018-02-05T04:02:01.073Z,-0.70
2018-02-05T04:04:35.357Z,-1.00
2018-02-05T04:07:09.060Z,-0.70
2018-02-05T04:09:37.437Z,-0.70
2018-02-05T04:12:05.937Z,-0.70
2018-02-05T04:14:34.281Z,-0.80
2018-02-05T04:17:05.740Z,-0.80
2018-02-05T04:19:34.305Z,-0.80
2018-02-05T04:22:01.873Z,-0.80
2018-02-05T04:24:29.904Z,-0.70
2018-02-05T04:26:59.096Z,-0.80
2018-02-05T04:29:26.754Z,-0.80
2018-02-05T04:31:54.402Z,-0.70
2018-02-05T04:34:22.973Z,-0.70
2018-02-05T04:36:51.700Z,-0.60
2018-02-05T04:39:19.329Z,-0.60
2018-02-05T04:41:46.952Z,-0.70
2018-02-05T04:44:15.381Z,-0.60
2018-02-05T04:46:43.659Z,-0.70
2018-02-05T04:49:11.238Z,-0.80
2018-02-05T04:51:38.883Z,-0.70
2018-02-05T04:54:07.168Z,-0.70
2018-02-05T04:56:34.818Z,-0.70
2018-02-05T04:59:03.281Z,-0.80
2018-02-05T05:01:31.612Z,-0.80
2018-02-05T05:04:00.123Z,-0.70
2018-02-05T05:06:30.506Z,-0.80
2018-02-05T05:08:58.072Z,-0.80
2018-02-05T05:11:26.191Z,-1.00
2018-02-05T05:13:56.327Z,-1.00
2018-02-05T05:16:24.662Z,-0.90
2018-02-05T05:18:52.908Z,-0.90
2018-02-05T05:21:20.473Z,-0.90
2018-02-05T05:23:48.183Z,-1.00
2018-02-05T05:26:16.010Z,-0.90
2018-02-05T05:28:44.417Z,-0.80
2018-02-05T05:31:12.018Z,-0.90
2018-02-05T05:33:39.685Z,-0.90
2018-02-05T05:36:08.394Z,-0.80
2018-02-05T05:38:37.059Z,-0.80
2018-02-05T05:41:06.366Z,-0.80
2018-02-05T05:43:42.541Z,-0.80
2018-02-05T05:46:10.138Z,-0.80
2018-02-05T05:48:39.719Z,-0.90
2018-02-05T05:53:45.364Z,-0.90
2018-02-05T05:56:16.149Z,-0.90
2018-02-05T05:58:45.752Z,-0.80
2018-02-05T06:01:16.429Z,-0.90
2018-02-05T06:03:46.835Z,-0.90
2018-02-05T06:06:17.974Z,-0.90
2018-02-05T06:08:49.969Z,-0.90
2018-02-05T06:11:44.065Z,-0.90
2018-02-05T06:17:00.600Z,-1.00
2018-02-05T06:22:28.197Z,-0.90
2018-02-05T06:24:55.810Z,-0.90
2018-02-05T06:27:23.453Z,-0.90
2018-02-05T06:29:53.911Z,-0.90
2018-02-05T06:32:22.269Z,-0.90
2018-02-05T06:34:51.616Z,-0.80
2018-02-05T06:37:19.948Z,-0.90
2018-02-05T06:39:47.533Z,-1.00
2018-02-05T06:42:16.522Z,-1.00
2018-02-05T06:44:44.241Z,-1.10
2018-02-05T06:47:13.873Z,-1.00
2018-02-05T06:49:43.271Z,-1.00
2018-02-05T06:52:23.467Z,-0.90
2018-02-05T06:55:03.493Z,-1.00
2018-02-05T06:57:31.072Z,-1.00
2018-02-05T06:59:59.528Z,-1.00
2018-02-05T07:02:27.058Z,-1.00
2018-02-05T07:04:55.913Z,-0.90
2018-02-05T07:07:25.275Z,-0.80
2018-02-05T07:09:53.640Z,-0.80
2018-02-05T07:12:22.146Z,-0.80
2018-02-05T07:14:50.690Z,-0.80
2018-02-05T07:17:21.788Z,-0.80
2018-02-05T07:19:50.216Z,-0.70
2018-02-05T07:22:23.995Z,-0.60
2018-02-05T07:24:52.483Z,-0.50
2018-02-05T07:27:23.874Z,-0.60
2018-02-05T07:29:52.222Z,-0.60
2018-02-05T07:32:24.109Z,-0.70
2018-02-05T07:34:53.434Z,-0.60
2018-02-05T07:37:22.142Z,-0.70
2018-02-05T07:39:50.666Z,-0.60
2018-02-05T07:42:19.003Z,-0.60
2018-02-05T07:44:46.505Z,-0.50
2018-02-05T07:47:16.406Z,-0.40
2018-02-05T07:49:48.699Z,-0.40
2018-02-05T07:52:18.122Z,-0.40
2018-02-05T07:54:46.436Z,-0.60
2018-02-05T07:57:14.816Z,-0.60
2018-02-05T07:59:42.403Z,-0.50
2018-02-05T08:02:10.754Z,-0.30
2018-02-05T08:04:38.475Z,-0.10
2018-02-05T08:07:06.754Z,0.10
2018-02-05T08:09:36.162Z,0.30
2018-02-05T08:12:04.140Z,0.90
2018-02-05T08:14:32.927Z,1.10
2018-02-05T08:17:00.590Z,1.00
2018-02-05T08:19:29.159Z,1.10
2018-02-05T08:21:56.701Z,1.20
2018-02-05T08:24:25.263Z,1.30
2018-02-05T08:26:53.149Z,1.50
2018-02-05T08:29:20.669Z,1.60
2018-02-05T08:31:48.222Z,1.90
2018-02-05T08:34:15.782Z,2.10
2018-02-05T08:36:43.325Z,2.30
2018-02-05T08:39:12.156Z,2.40
2018-02-05T08:41:39.826Z,2.50
2018-02-05T08:44:08.477Z,2.60
2018-02-05T08:46:35.983Z,2.80
2018-02-05T08:49:03.538Z,2.90
2018-02-05T08:51:32.694Z,2.80
2018-02-05T08:54:01.589Z,2.90
2018-02-05T08:56:33.824Z,2.90
2018-02-05T08:59:01.490Z,3.00
2018-02-05T09:01:32.000Z,3.10
2018-02-05T09:03:59.675Z,3.10
2018-02-05T09:06:27.227Z,3.00
2018-02-05T09:08:54.883Z,3.10
2018-02-05T09:11:22.404Z,3.00
2018-02-05T09:13:49.976Z,3.20
2018-02-05T09:16:17.556Z,3.20
2018-02-05T09:18:45.150Z,3.10
2018-02-05T09:21:12.676Z,3.20
2018-02-05T09:23:40.297Z,3.30
2018-02-05T09:26:07.873Z,3.40
2018-02-05T09:28:35.422Z,3.60
2018-02-05T09:31:03.582Z,3.50
2018-02-05T09:33:31.149Z,3.40
2018-02-05T09:35:58.744Z,3.20
2018-02-05T09:38:27.052Z,3.00
2018-02-05T09:40:54.619Z,2.80
2018-02-05T09:43:22.180Z,2.60
2018-02-05T09:45:49.716Z,2.30
2018-02-05T09:48:17.278Z,2.50
2018-02-05T09:50:45.655Z,2.10
2018-02-05T09:53:13.217Z,2.10
2018-02-05T09:55:40.794Z,2.00
2018-02-05T09:58:08.319Z,1.90
2018-02-05T10:00:36.637Z,1.90
2018-02-05T10:03:04.994Z,2.80
2018-02-05T10:05:34.340Z,1.90
2018-02-05T10:08:02.712Z,1.90
2018-02-05T10:10:32.126Z,1.90
2018-02-05T10:13:00.628Z,2.20
2018-02-05T10:15:29.013Z,2.00
2018-02-05T10:17:58.429Z,2.10
2018-02-05T10:20:26.056Z,2.20
2018-02-05T10:22:53.701Z,2.20
2018-02-05T10:25:21.821Z,2.20
2018-02-05T10:27:49.362Z,2.40
2018-02-05T10:30:19.071Z,2.60
2018-02-05T10:32:49.908Z,2.90
2018-02-05T10:35:22.477Z,3.10
2018-02-05T10:37:50.718Z,3.20
2018-02-05T10:40:18.378Z,3.30
2018-02-05T10:45:22.215Z,3.10
2018-02-05T10:47:52.092Z,3.10
2018-02-05T10:50:19.661Z,3.00
2018-02-05T10:52:47.229Z,3.10
2018-02-05T10:55:15.202Z,3.10
2018-02-05T10:57:42.863Z,3.40
2018-02-05T11:00:10.803Z,3.60
2018-02-05T11:02:38.335Z,3.70
2018-02-05T11:05:09.315Z,4.00
2018-02-05T11:07:39.006Z,4.10
2018-02-05T11:10:10.110Z,4.10
2018-02-05T11:12:41.693Z,4.10
2018-02-05T11:15:10.104Z,4.00
2018-02-05T11:17:38.122Z,3.90
2018-02-05T11:20:07.429Z,3.90
2018-02-05T11:22:37.246Z,4.00
2018-02-05T11:25:06.282Z,4.10
2018-02-05T11:27:34.239Z,3.90
2018-02-05T11:30:02.720Z,4.00
2018-02-05T11:32:30.234Z,4.10
2018-02-05T11:34:59.900Z,4.20
2018-02-05T11:37:27.990Z,4.00
2018-02-05T11:39:55.641Z,3.90
2018-02-05T11:42:23.840Z,3.80
2018-02-05T11:44:52.868Z,3.80
2018-02-05T11:47:20.512Z,3.80
2018-02-05T11:49:49.172Z,3.70
2018-02-05T11:54:46.429Z,4.00
2018-02-05T11:57:15.368Z,3.90
2018-02-05T11:59:46.724Z,3.80
2018-02-05T12:02:15.327Z,3.70
2018-02-05T12:04:43.354Z,3.50
2018-02-05T12:07:12.290Z,3.20
2018-02-05T12:09:39.918Z,3.20
2018-02-05T12:12:09.693Z,3.10
2018-02-05T12:14:43.949Z,3.20
2018-02-05T12:17:14.641Z,3.40
2018-02-05T12:19:44.004Z,3.70
2018-02-05T12:22:12.241Z,3.80
2018-02-05T12:24:42.870Z,3.90
2018-02-05T12:27:11.653Z,4.00
2018-02-05T12:29:40.282Z,3.90
2018-02-05T12:32:09.541Z,3.90
2018-02-05T12:34:37.897Z,3.90
2018-02-05T12:37:05.459Z,3.80
2018-02-05T12:39:34.013Z,3.80
2018-02-05T12:42:02.343Z,3.60
2018-02-05T12:44:29.892Z,3.80
2018-02-05T12:46:58.200Z,3.80
2018-02-05T12:49:26.153Z,3.60
2018-02-05T12:51:55.100Z,3.70
2018-02-05T12:54:23.113Z,3.50
2018-02-05T12:56:50.649Z,3.30
2018-02-05T12:59:18.957Z,3.20
2018-02-05T13:01:56.352Z,3.30
2018-02-05T13:04:28.465Z,3.20
2018-02-05T13:06:56.306Z,3.20
2018-02-05T13:09:24.798Z,3.40
2018-02-05T13:11:53.518Z,3.40
2018-02-05T13:14:21.858Z,3.30
2018-02-05T13:16:49.458Z,3.10
2018-02-05T13:19:17.043Z,3.00
2018-02-05T13:21:44.728Z,3.00
2018-02-05T13:24:13.125Z,2.80
2018-02-05T13:26:41.500Z,2.80
2018-02-05T13:29:09.032Z,2.80
2018-02-05T13:31:36.540Z,2.80
2018-02-05T13:34:04.469Z,2.70
2018-02-05T13:36:32.328Z,2.50
2018-02-05T13:39:00.451Z,2.60
2018-02-05T13:41:29.475Z,2.70
2018-02-05T13:43:58.765Z,2.70
2018-02-05T13:46:27.076Z,2.80
2018-02-05T13:48:55.528Z,2.80
2018-02-05T13:51:23.881Z,2.80
2018-02-05T13:53:53.237Z,2.80
2018-02-05T13:56:20.828Z,2.60
2018-02-05T13:58:49.190Z,2.60
2018-02-05T14:01:17.050Z,2.60
2018-02-05T14:03:45.052Z,2.60
2018-02-05T14:06:16.132Z,2.70
2018-02-05T14:08:43.689Z,2.60
2018-02-05T14:11:11.901Z,2.50
2018-02-05T14:13:41.412Z,2.40
2018-02-05T14:16:10.213Z,2.20
2018-02-05T14:18:39.775Z,2.30
2018-02-05T14:21:07.354Z,2.20
2018-02-05T14:23:34.997Z,2.10
2018-02-05T14:26:02.527Z,2.00
2018-02-05T14:28:30.897Z,1.90
2018-02-05T14:30:59.305Z,2.00
2018-02-05T14:33:28.408Z,2.10
2018-02-05T14:35:56.710Z,2.00
2018-02-05T14:38:25.827Z,2.00
2018-02-05T14:40:54.198Z,1.90
2018-02-05T14:43:23.857Z,1.90
2018-02-05T14:45:52.038Z,1.90
2018-02-05T14:48:23.820Z,1.80
2018-02-05T14:50:52.880Z,1.70
2018-02-05T14:53:21.238Z,1.70
2018-02-05T14:55:49.558Z,1.70
2018-02-05T14:58:17.919Z,1.50
2018-02-05T15:00:45.453Z,1.80
2018-02-05T15:03:14.023Z,1.60
2018-02-05T15:05:43.042Z,1.40
2018-02-05T15:08:10.581Z,1.40
2018-02-05T15:10:38.928Z,1.40
2018-02-05T15:13:06.563Z,1.30
2018-02-05T15:15:35.892Z,1.40
2018-02-05T15:18:03.377Z,1.40
2018-02-05T15:20:31.773Z,1.40
2018-02-05T15:23:00.406Z,1.70
2018-02-05T15:25:29.281Z,1.40
2018-02-05T15:27:56.891Z,1.40
2018-02-05T15:30:25.389Z,1.50
2018-02-05T15:32:53.238Z,1.60
2018-02-05T15:35:23.140Z,1.70
2018-02-05T15:37:50.686Z,1.80
2018-02-05T15:40:19.977Z,1.80
2018-02-05T15:42:48.397Z,1.80
2018-02-05T15:45:16.685Z,1.80
2018-02-05T15:47:44.883Z,1.90
2018-02-05T15:50:12.969Z,1.80
2018-02-05T15:52:41.337Z,1.80
2018-02-05T15:55:08.964Z,1.80
2018-02-05T15:57:37.383Z,1.80
2018-02-05T16:00:05.032Z,1.90
2018-02-05T16:02:33.568Z,1.70
2018-02-05T16:05:03.668Z,1.90
2018-02-05T16:07:32.047Z,1.90
2018-02-05T16:10:01.147Z,1.80
2018-02-05T16:12:29.036Z,1.60
2018-02-05T16:14:57.325Z,1.50
2018-02-05T16:17:24.940Z,1.40
2018-02-05T16:19:53.528Z,1.50
2018-02-05T16:22:21.070Z,1.30
2018-02-05T16:24:49.102Z,1.20
2018-02-05T16:27:17.682Z,1.30
2018-02-05T16:29:45.876Z,1.40
2018-02-05T16:32:15.209Z,1.60
2018-02-05T16:34:43.230Z,1.50
2018-02-05T16:37:11.664Z,1.50
2018-02-05T16:39:39.936Z,1.50
2018-02-05T16:42:07.526Z,1.50
2018-02-05T16:44:35.085Z,1.50
2018-02-05T16:47:03.375Z,1.40
2018-02-05T16:49:32.107Z,1.40
2018-02-05T16:52:01.355Z,1.40
2018-02-05T16:54:30.046Z,1.80
2018-02-05T16:56:58.360Z,1.30
2018-02-05T16:59:25.899Z,1.30
2018-02-05T17:01:53.853Z,1.10
2018-02-05T17:09:25.218Z,1.20
2018-02-05T17:11:55.599Z,1.20
2018-02-05T17:14:23.187Z,1.20
2018-02-05T17:16:50.774Z,1.30
2018-02-05T17:19:18.746Z,1.40
2018-02-05T17:21:46.315Z,1.40
2018-02-05T17:24:13.890Z,1.50
2018-02-05T17:26:41.421Z,1.50
2018-02-05T17:29:08.952Z,1.50
2018-02-05T17:31:36.945Z,1.60
2018-02-05T17:34:05.313Z,1.50
2018-02-05T17:36:33.866Z,1.50
2018-02-05T17:39:02.712Z,1.50
2018-02-05T17:41:30.267Z,1.40
2018-02-05T17:43:57.794Z,1.50
2018-02-05T17:46:26.122Z,1.50
2018-02-05T17:48:54.448Z,1.50
2018-02-05T17:51:22.788Z,1.50
2018-02-05T17:53:50.345Z,1.40
2018-02-05T17:56:18.330Z,1.40
2018-02-05T17:58:50.757Z,1.40
2018-02-05T18:01:18.338Z,1.40
2018-02-05T18:03:46.687Z,1.40
2018-02-05T18:06:16.388Z,1.30
2018-02-05T18:08:47.420Z,1.30
2018-02-05T18:11:15.008Z,1.30
2018-02-05T18:13:46.150Z,1.30
2018-02-05T18:16:13.725Z,1.20
2018-02-05T18:18:42.799Z,1.20
2018-02-05T18:21:10.321Z,1.30
2018-02-05T18:23:38.336Z,1.20
2018-02-05T18:26:07.192Z,1.20
2018-02-05T18:31:05.013Z,1.20
2018-02-05T18:33:37.303Z,1.30
2018-02-05T18:36:05.740Z,1.40
2018-02-05T18:38:33.393Z,1.40
2018-02-05T18:41:02.097Z,1.40
2018-02-05T18:43:29.740Z,1.50
2018-02-05T18:45:58.091Z,1.50
2018-02-05T18:48:25.920Z,1.40
2018-02-05T18:50:55.128Z,1.40
2018-02-05T18:53:23.672Z,1.40
2018-02-05T18:55:51.199Z,1.40
2018-02-05T18:58:22.235Z,1.30
2018-02-05T19:00:52.670Z,1.30
2018-02-05T19:03:21.963Z,1.20
2018-02-05T19:05:49.524Z,1.20
2018-02-05T19:08:24.520Z,1.10
2018-02-05T19:10:52.042Z,1.00
2018-02-05T19:13:19.678Z,1.80
2018-02-05T19:15:48.098Z,1.00
2018-02-05T19:18:16.110Z,0.90
2018-02-05T19:20:43.643Z,1.00
2018-02-05T19:23:11.317Z,1.00
2018-02-05T19:25:38.864Z,1.00
2018-02-05T19:28:07.191Z,1.00
2018-02-05T19:30:35.465Z,1.20
2018-02-05T19:33:04.221Z,1.20
2018-02-05T19:35:32.484Z,1.90
2018-02-05T19:38:00.065Z,1.30
2018-02-05T19:40:27.630Z,1.40
2018-02-05T19:42:55.177Z,1.20
2018-02-05T19:45:22.684Z,1.10
2018-02-05T19:47:53.162Z,0.80
2018-02-05T19:50:20.762Z,0.80
2018-02-05T19:52:48.386Z,0.80
2018-02-05T19:55:15.942Z,0.70
2018-02-05T19:57:43.859Z,0.90
2018-02-05T20:00:11.927Z,0.80
2018-02-05T20:02:40.735Z,1.00
2018-02-05T20:05:10.061Z,0.90
2018-02-05T20:07:39.556Z,0.90
2018-02-05T20:10:09.872Z,0.90
2018-02-05T20:12:37.502Z,0.90
2018-02-05T20:15:05.044Z,1.00
2018-02-05T20:17:33.472Z,0.90
2018-02-05T20:20:01.835Z,1.00
2018-02-05T20:22:29.445Z,1.10
2018-02-05T20:24:57.433Z,1.10
2018-02-05T20:27:24.915Z,1.10
2018-02-05T20:29:52.482Z,1.20
2018-02-05T20:32:20.038Z,1.20
2018-02-05T20:34:48.290Z,1.20
2018-02-05T20:37:16.574Z,1.30
2018-02-05T20:39:45.397Z,1.30
2018-02-05T20:42:14.050Z,1.20
2018-02-05T20:44:41.628Z,1.20
2018-02-05T20:47:09.582Z,1.00
2018-02-05T20:49:37.480Z,1.00
2018-02-05T20:52:05.750Z,1.10
2018-02-05T20:54:33.631Z,1.20
2018-02-05T20:57:01.132Z,1.20
2018-02-05T20:59:28.671Z,1.20
2018-02-05T21:01:57.093Z,1.20
2018-02-05T21:04:25.379Z,1.30
2018-02-05T21:06:52.986Z,1.20
2018-02-05T21:09:22.466Z,1.30
2018-02-05T21:11:50.003Z,1.30
2018-02-05T21:14:17.513Z,1.30
2018-02-05T21:16:45.968Z,1.30
2018-02-05T21:19:13.478Z,1.20
2018-02-05T21:21:41.094Z,1.20
2018-02-05T21:24:08.705Z,1.10
2018-02-05T21:26:36.917Z,1.10
2018-02-05T21:29:04.493Z,0.90
2018-02-05T21:31:32.003Z,0.90
2018-02-05T21:34:00.403Z,0.90
2018-02-05T21:36:29.347Z,0.90
2018-02-05T21:38:57.329Z,0.90
2018-02-05T21:41:26.714Z,0.90
2018-02-05T21:43:55.859Z,0.80
2018-02-05T21:46:23.489Z,1.20
2018-02-05T21:48:50.998Z,0.80
2018-02-05T21:51:18.851Z,0.90
2018-02-05T21:53:46.324Z,1.00
2018-02-05T21:56:13.834Z,0.90
2018-02-05T21:58:41.317Z,1.10
2018-02-05T22:01:09.788Z,1.20
2018-02-05T22:03:37.312Z,1.30
2018-02-05T22:06:04.812Z,1.30
2018-02-05T22:08:32.418Z,1.20
2018-02-05T22:11:00.696Z,1.10
2018-02-05T22:13:28.960Z,1.10
2018-02-05T22:15:56.923Z,1.20
2018-02-05T22:18:24.449Z,1.30
2018-02-05T22:20:52.732Z,1.30
2018-02-05T22:23:21.556Z,1.20
2018-02-05T22:25:49.899Z,1.20
2018-02-05T22:28:17.425Z,1.30
2018-02-05T22:30:45.375Z,1.20
2018-02-05T22:33:13.365Z,1.20
2018-02-05T22:35:40.967Z,1.00
2018-02-05T22:38:08.459Z,0.90
2018-02-05T22:40:36.745Z,0.70
2018-02-05T22:43:04.662Z,0.90
2018-02-05T22:45:32.255Z,0.80
2018-02-05T22:48:00.165Z,0.90
2018-02-05T22:50:27.671Z,0.90
2018-02-05T22:52:56.933Z,1.00
2018-02-05T22:55:25.498Z,1.00
2018-02-05T22:57:53.072Z,1.00
2018-02-05T23:00:20.676Z,0.90
2018-02-05T23:02:50.087Z,1.00
2018-02-05T23:05:18.412Z,1.00
2018-02-05T23:07:45.905Z,0.90
2018-02-05T23:10:14.222Z,1.00
2018-02-05T23:12:41.825Z,1.10
2018-02-05T23:15:11.164Z,1.10
2018-02-05T23:17:38.850Z,1.10
2018-02-05T23:20:06.399Z,1.00
2018-02-05T23:22:34.712Z,1.10
2018-02-05T23:25:02.238Z,1.20
2018-02-05T23:27:29.841Z,1.10
2018-02-05T23:29:58.994Z,1.10
2018-02-05T23:32:27.887Z,1.10
2018-02-05T23:34:58.253Z,1.20
2018-02-05T23:37:25.735Z,1.20
2018-02-05T23:39:54.039Z,1.20
2018-02-05T23:42:21.590Z,1.00
2018-02-05T23:44:49.886Z,1.00
2018-02-05T23:47:17.835Z,0.90
2018-02-05T23:49:45.365Z,0.10
2018-02-05T23:52:14.452Z,0.80
2018-02-05T23:54:42.462Z,0.80
2018-02-05T23:57:10.454Z,0.70
2018-02-05T23:59:38.573Z,0.60
